Latest Weather Observations for Holsworthy (Defence)

IDN60901

Issued at 5:01 pm EDT Tuesday 26 March 2019 (issued every 10 minutes, with the page automatically refreshed every 10 minutes)

About weather observations | Map of Sydney area stations | Latest observations for Sydney area | Other Formats
Station Details ID: 068263 Name: HOLSWORTHY (DEFENCE) Lat: -34.08 Lon: 150.90 Height: 165.0 m
Data from the previous 72 hours. | See also: Recent months at Holsworthy (Defence)
Date/Time
EDT
Temp
°C
App
Temp
°C
Dew
Point
°C
Rel
Hum
%
Delta-T
°C
Wind Press
QNH
hPa
Press
MSL
hPa
Rain since
9am
mm
Dir  Spd
km/h
Gust
km/h
Spd
kts
Gust
kts
26/05:00pm 24.7 21.9 2.2 23 10.8 WSW 6 13 3 7 - - 0.0
26/04:30pm 24.5 21.8 3.8 26 10.3 SW 7 13 4 7 - - 0.0
26/04:00pm 24.9 21.8 3.5 25 10.6 W 9 19 5 10 - - 0.0
26/03:30pm 24.4 20.4 3.1 25 10.4 WSW 13 22 7 12 - - 0.0
26/03:00pm 24.1 19.7 2.9 25 10.3 WSW 15 28 8 15 - - 0.0
26/02:30pm 23.5 19.9 2.9 26 10.0 SW 11 20 6 11 - - 0.0
26/02:00pm 23.8 19.9 3.2 26 10.1 WSW 13 24 7 13 - - 0.0
26/01:30pm 22.8 18.2 1.8 25 9.9 W 15 24 8 13 - - 0.0
26/01:00pm 22.9 19.7 2.9 27 9.6 W 9 20 5 11 - - 0.0
26/12:30pm 22.2 17.4 2.8 28 9.3 W 17 28 9 15 - - 0.0
26/12:00pm 21.6 17.0 3.8 31 8.6 W 17 28 9 15 - - 0.0
26/11:30am 20.1 15.8 3.3 33 8.0 WSW 15 28 8 15 - - 0.0
26/11:00am 19.4 14.8 3.6 35 7.5 WSW 17 30 9 16 - - 0.0
26/10:30am 19.1 14.8 5.2 40 6.8 WSW 17 30 9 16 - - 0.0
26/10:00am 18.1 13.4 5.3 43 6.2 W 19 32 10 17 - - 0.0
26/09:30am 17.6 13.9 6.2 47 5.6 WNW 15 24 8 13 - - 0.0
26/09:00am 16.8 13.0 6.0 49 5.3 WNW 15 28 8 15 - - 0.6
26/08:30am 16.0 12.7 6.2 52 4.8 WSW 13 26 7 14 - - 0.6
26/08:00am 15.4 11.8 6.9 57 4.2 WSW 15 26 8 14 - - 0.6
26/07:30am 14.6 11.9 8.8 68 3.0 WSW 13 19 7 10 - - 0.6
26/07:00am 15.1 12.2 8.1 63 3.5 WSW 13 17 7 9 - - 0.6
26/06:30am 15.9 12.3 8.2 60 3.9 WSW 17 24 9 13 - - 0.6
26/06:00am 16.0 12.5 8.7 62 3.8 W 17 26 9 14 - - 0.6
26/05:30am 15.3 13.1 9.2 67 3.2 WSW 11 15 6 8 - - 0.6
26/05:00am 15.0 13.4 10.2 73 2.5 SW 9 15 5 8 - - 0.6
26/04:30am 14.9 13.8 10.7 76 2.2 SW 7 9 4 5 - - 0.6
26/04:00am 15.8 15.2 10.3 70 2.9 WSW 4 6 2 3 - - 0.6
26/03:30am 16.7 15.7 10.3 66 3.4 W 6 7 3 4 - - 0.6
26/03:00am 17.7 17.0 10.1 61 4.1 WSW 4 9 2 5 - - 0.6
26/02:30am 18.4 17.5 10.5 60 4.3 SW 6 13 3 7 - - 0.6
26/02:00am 18.7 16.7 10.3 58 4.5 SW 11 19 6 10 - - 0.6
26/01:30am 19.0 16.2 10.0 56 4.8 SW 15 26 8 14 - - 0.6
26/01:00am 18.8 17.5 10.1 57 4.7 WSW 7 17 4 9 - - 0.6
26/12:30am 19.1 17.5 10.1 56 4.9 WSW 9 19 5 10 - - 0.6
26/12:00am 19.3 18.0 11.1 59 4.5 WSW 9 15 5 8 - - 0.6
 
Date/Time
EDT
Temp
°C
App
Temp
°C
Dew
Point
°C
Rel
Hum
%
Delta-T
°C
Wind Press
QNH
hPa
Press
MSL
hPa
Rain since
9am
mm
Dir  Spd
km/h
Gust
km/h
Spd
kts
Gust
kts
25/11:30pm 19.7 18.7 12.2 62 4.2 WSW 9 15 5 8 - - 0.6
25/11:00pm 19.8 19.8 13.7 68 3.5 WSW 6 11 3 6 - - 0.6
25/10:30pm 20.5 20.0 13.9 66 3.8 WSW 9 13 5 7 - - 0.6
25/10:00pm 20.8 20.9 14.5 67 3.7 WSW 7 15 4 8 - - 0.6
25/09:30pm 20.8 20.9 15.6 72 3.1 SSW 9 19 5 10 - - 0.6
25/09:00pm 21.3 19.8 15.4 69 3.5 SW 17 28 9 15 - - 0.6
25/08:30pm 22.1 22.2 16.6 71 3.4 SW 11 19 6 10 - - 0.4
25/08:00pm 22.9 24.0 17.1 70 3.6 SSW 7 15 4 8 - - 0.4
25/07:30pm 23.5 25.1 17.0 67 4.0 N 4 7 2 4 - - 0.4
25/07:00pm 23.8 24.3 16.6 64 4.4 NW 9 17 5 9 - - 0.4
25/06:30pm 24.1 24.0 16.9 64 4.5 NW 13 26 7 14 - - 0.4
25/06:00pm 24.3 22.9 17.1 64 4.5 NNW 20 41 11 22 - - 0.4
25/05:30pm 23.8 23.7 17.8 69 3.8 NNW 15 24 8 13 - - 0.4
25/05:00pm 23.7 23.2 17.9 70 3.6 NNW 17 30 9 16 - - 0.4
25/04:30pm 23.4 23.5 18.3 73 3.2 NNW 15 26 8 14 - - 0.4
25/04:00pm 22.7 23.3 18.7 78 2.5 NNW 13 22 7 12 - - 0.4
25/03:30pm 22.6 23.5 18.4 77 2.7 NNW 11 19 6 10 - - 0.4
25/03:00pm 22.5 23.9 18.7 79 2.4 NW 9 17 5 9 - - 0.4
25/02:30pm 22.1 23.4 18.5 80 2.3 NNW 9 17 5 9 - - 0.4
25/02:00pm 21.4 23.1 18.6 84 1.8 NNW 7 13 4 7 - - 0.4
25/01:30pm 21.0 22.4 17.8 82 2.0 NNW 7 11 4 6 - - 0.4
25/01:00pm 20.9 21.9 17.7 82 2.0 NNW 9 19 5 10 - - 0.4
25/12:30pm 20.9 22.3 17.9 83 1.9 NNW 7 15 4 8 - - 0.4
25/12:00pm 20.7 21.2 17.5 82 2.0 NNW 11 17 6 9 - - 0.4
25/11:30am 20.2 20.8 17.6 85 1.6 NNW 11 19 6 10 - - 0.4
25/11:00am 19.5 20.5 17.8 90 1.1 NNW 9 17 5 9 - - 0.4
25/10:30am 19.0 19.0 17.3 90 1.0 NNW 13 22 7 12 - - 0.4
25/10:00am 19.0 20.6 17.8 93 0.7 NW 6 9 3 5 - - 0.4
25/09:30am 18.6 19.4 17.3 92 0.8 N 9 15 5 8 - - 0.0
25/09:00am 18.7 19.2 17.4 92 0.8 N 11 17 6 9 - - 3.4
25/08:30am 18.4 19.2 17.2 93 0.7 N 9 17 5 9 - - 3.4
25/08:00am 18.3 19.4 17.0 92 0.8 N 7 13 4 7 - - 3.4
25/07:30am 18.8 19.3 16.6 87 1.3 NW 9 13 5 7 - - 3.2
25/07:00am 19.1 18.8 16.5 85 1.6 WNW 13 24 7 13 - - 2.8
25/06:30am 20.8 20.0 16.0 74 2.9 W 15 28 8 15 - - 2.0
25/06:00am 20.9 20.3 16.7 77 2.6 W 15 28 8 15 - - 2.0
25/05:30am 20.6 21.2 17.8 84 1.7 W 11 20 6 11 - - 2.0
25/05:00am 20.3 22.4 18.1 87 1.4 WNW 4 7 2 4 - - 2.0
25/04:30am 20.2 22.2 18.7 91 0.9 SW 6 15 3 8 - - 2.0
25/04:00am 19.9 22.1 19.1 95 0.5 SSW 6 9 3 5 - - 1.4
25/03:30am 20.1 23.1 19.3 95 0.5 W 2 2 1 1 - - 1.4
25/03:00am 19.7 22.1 18.7 94 0.6 WSW 4 6 2 3 - - 1.4
25/02:30am 19.9 22.7 18.9 94 0.6 S 2 6 1 3 - - 1.4
25/02:00am 20.0 23.3 19.0 94 0.6 CALM 0 0 0 0 - - 1.4
25/01:30am 20.0 23.3 19.2 95 0.5 CALM 0 4 0 2 - - 1.4
25/01:00am 20.3 23.3 19.3 94 0.6 S 2 4 1 2 - - 1.4
25/12:30am 20.5 23.5 19.3 93 0.8 WSW 2 4 1 2 - - 1.4
25/12:00am 20.8 23.9 19.5 92 0.8 N 2 4 1 2 - - 1.4
 
Date/Time
EDT
Temp
°C
App
Temp
°C
Dew
Point
°C
Rel
Hum
%
Delta-T
°C
Wind Press
QNH
hPa
Press
MSL
hPa
Rain since
9am
mm
Dir  Spd
km/h
Gust
km/h
Spd
kts
Gust
kts
24/11:30pm 21.1 23.5 19.7 92 0.9 NNE 6 9 3 5 - - 1.4
24/11:00pm 20.9 23.3 19.6 92 0.8 NNE 6 9 3 5 - - 1.4
24/10:30pm 20.6 22.9 19.4 93 0.8 N 6 9 3 5 - - 1.4
24/10:00pm 20.6 22.8 19.1 91 1.0 NNE 6 9 3 5 - - 1.4
24/09:30pm 20.5 22.7 19.3 93 0.8 NNE 6 9 3 5 - - 1.4
24/09:00pm 20.9 24.7 20.1 95 0.5 CALM 0 0 0 0 - - 1.4
24/08:30pm 20.9 24.7 20.1 95 0.5 CALM 0 4 0 2 - - 1.4
24/08:00pm 21.0 24.0 20.0 94 0.6 SSE 4 6 2 3 - - 1.4
24/07:30pm 21.5 24.5 20.0 91 1.0 S 4 7 2 4 - - 1.4
24/07:00pm 23.0 26.6 20.5 86 1.6 NE 2 6 1 3 - - 0.4
24/06:30pm 23.8 27.4 19.7 78 2.7 CALM 0 4 0 2 - - 0.4
24/06:00pm 24.9 26.6 18.4 67 4.1 NNE 7 13 4 7 - - 0.4
24/05:30pm 25.9 27.9 17.0 58 5.6 SSE 2 6 1 3 - - 0.4
24/05:00pm 26.4 27.8 17.7 58 5.5 SE 7 11 4 6 - - 0.4
24/04:30pm 27.2 28.3 17.1 54 6.4 SSE 7 9 4 5 - - 0.4
24/04:00pm 27.9 29.0 17.1 51 6.8 SSE 7 15 4 8 - - 0.4
24/03:30pm 28.4 28.8 16.3 47 7.6 SE 9 15 5 8 - - 0.4
24/03:00pm 28.5 27.8 14.3 41 8.6 SE 11 19 6 10 - - 0.4
24/02:30pm 29.7 29.6 16.1 43 8.5 SE 11 24 6 13 - - 0.4
24/02:00pm 29.5 30.2 18.0 50 7.4 SSE 11 17 6 9 - - 0.4
24/01:30pm 30.3 31.2 16.0 42 8.9 S 6 11 3 6 - - 0.4
24/01:00pm 29.8 31.0 16.9 45 8.2 S 6 11 3 6 - - 0.4
24/12:30pm 29.1 29.6 16.6 46 7.9 SSW 9 22 5 12 - - 0.4
24/12:00pm 29.2 30.3 18.0 51 7.2 SW 9 19 5 10 - - 0.4
24/11:30am 28.8 30.2 17.3 49 7.3 SSW 6 9 3 5 - - 0.4
24/11:00am 27.6 29.5 18.9 59 5.6 SSW 7 15 4 8 - - 0.4
24/10:30am 25.4 28.3 20.6 75 3.2 WNW 6 9 3 5 - - 0.0
24/10:00am 24.4 27.6 21.3 83 2.1 NW 6 7 3 4 - - 0.0
24/09:30am 21.5 24.5 20.1 92 0.9 SSW 4 6 2 3 - - 0.0
24/09:00am 20.4 22.9 19.9 97 0.3 S 6 7 3 4 - - 2.0
24/08:30am 19.9 22.2 19.4 97 0.3 SSE 6 6 3 3 - - 2.0
24/08:00am 19.4 21.6 19.1 98 0.2 SSW 6 13 3 7 - - 2.0
24/07:30am 19.1 21.5 18.8 98 0.2 SW 4 6 2 3 - - 2.0
24/07:00am 18.9 22.0 18.6 98 0.2 CALM 0 0 0 0 - - 2.0
24/06:30am 18.9 22.0 18.6 98 0.2 CALM 0 0 0 0 - - 2.0
24/06:00am 19.0 22.1 18.7 98 0.2 CALM 0 2 0 1 - - 2.0
24/05:30am 19.0 22.1 18.7 98 0.2 CALM 0 2 0 1 - - 2.0
24/05:00am 19.1 21.9 18.8 98 0.2 W 2 4 1 2 - - 2.0
24/04:30am 19.2 22.0 18.9 98 0.2 W 2 4 1 2 - - 2.0
24/04:00am 19.3 21.8 19.0 98 0.2 WNW 4 6 2 3 - - 2.0
24/03:30am 19.3 21.4 19.0 98 0.2 NW 6 7 3 4 - - 2.0
24/03:00am 19.1 21.0 18.6 97 0.3 NNW 6 7 3 4 - - 2.0
24/02:30am 19.0 22.0 18.5 97 0.3 CALM 0 0 0 0 - - 2.0
24/02:00am 19.2 21.6 18.7 97 0.3 WNW 4 6 2 3 - - 2.0
24/01:30am 19.4 21.8 18.9 97 0.3 WNW 4 6 2 3 - - 2.0
24/01:00am 19.5 22.0 19.0 97 0.3 WNW 4 6 2 3 - - 1.8
24/12:30am 19.6 22.1 19.1 97 0.3 WNW 4 7 2 4 - - 1.8
24/12:00am 19.8 22.0 19.3 97 0.3 NNW 6 7 3 4 - - 1.8
 
Date/Time
EDT
Temp
°C
App
Temp
°C
Dew
Point
°C
Rel
Hum
%
Delta-T
°C
Wind Press
QNH
hPa
Press
MSL
hPa
Rain since
9am
mm
Dir  Spd
km/h
Gust
km/h
Spd
kts
Gust
kts
23/11:30pm 20.1 22.4 19.8 98 0.2 NNW 7 11 4 6 - - 1.8
23/11:00pm 19.9 22.2 19.4 97 0.3 NNW 6 7 3 4 - - 1.8
23/10:30pm 19.8 22.7 19.1 96 0.4 N 2 6 1 3 - - 1.8
23/10:00pm 19.9 23.2 19.2 96 0.4 CALM 0 2 0 1 - - 1.8
23/09:30pm 20.2 22.9 19.5 96 0.4 NNE 4 4 2 2 - - 1.8
23/09:00pm 20.5 23.7 19.8 96 0.4 W 2 4 1 2 - - 1.8
23/08:30pm 20.6 23.5 19.8 95 0.5 NNW 4 6 2 3 - - 1.8
23/08:00pm 20.6 23.0 19.6 94 0.6 ESE 6 9 3 5 - - 1.8
23/07:30pm 20.9 22.7 19.6 92 0.8 ESE 9 17 5 9 - - 1.8
23/07:00pm 21.9 24.9 19.3 85 1.7 NNE 2 4 1 2 - - 0.2
23/06:30pm 22.1 23.8 19.3 84 1.8 ESE 9 15 5 8 - - 0.2
23/06:00pm 23.1 25.5 18.8 77 2.7 SE 4 6 2 3 - - 0.2
23/05:30pm 23.6 25.5 18.5 73 3.2 ESE 6 9 3 5 - - 0.2

Latest Capital City Observations: Canberra | Sydney | Melbourne | Brisbane | Adelaide | Perth | Hobart | Darwin

Other formats

Comma delimited format used in spreadsheet applications
http://www.bom.gov.au/fwo/IDN60901/IDN60901.95684.axf

JavaScript Object Notation format (JSON) in row-major order
http://www.bom.gov.au/fwo/IDN60901/IDN60901.95684.json

Data quality

Most of these data are generated automatically and are frequently updated. Quality checks on data are not normally performed. It is possible for incorrect values to appear. Refer to information at About Latest Weather Observations and please check the disclaimer before using these data.